Time;durP1;ratioP1;P1;durP2;ratioP2;P2;SDS_P1;SDS_P2;PMS_P1;PMS_P2;Temp;Humidity;BMP_temperature;BMP_pressure;BME280_temperature;BME280_humidity;BME280_pressure;Samples;Min_cycle;Max_cycle;Signal;HPM_P1;HPM_P2
2021/09/21 00:02:05;;;;;;;8.60;7.80;;;14.30;99.90;;;;;;5025866;28;20453;-72
2021/09/21 00:04:51;;;;;;;8.90;7.63;;;14.20;99.90;;;;;;5020397;28;20431;-72
2021/09/21 00:07:36;;;;;;;10.27;7.80;;;14.20;99.90;;;;;;5016122;28;20459;-72
2021/09/21 00:10:22;;;;;;;10.00;8.20;;;14.20;99.90;;;;;;5012016;28;20455;-71
2021/09/21 00:13:09;;;;;;;14.53;7.70;;;14.20;99.90;;;;;;5012743;28;20989;-72
2021/09/21 00:15:56;;;;;;;8.43;7.63;;;14.10;99.90;;;;;;5019273;28;20460;-72
2021/09/21 00:18:41;;;;;;;9.03;8.13;;;14.20;99.90;;;;;;5012638;28;20428;-72
2021/09/21 00:21:27;;;;;;;9.63;7.90;;;14.20;99.90;;;;;;5017618;28;20460;-72
2021/09/21 00:24:13;;;;;;;9.03;8.13;;;14.20;99.90;;;;;;4994751;28;20472;-72
2021/09/21 00:26:59;;;;;;;12.43;8.50;;;14.20;99.90;;;;;;5021216;28;20453;-72
2021/09/21 00:29:46;;;;;;;11.03;8.07;;;14.20;99.90;;;;;;5021832;28;20496;-72
2021/09/21 00:32:32;;;;;;;9.80;8.30;;;14.00;99.90;;;;;;5021739;28;20433;-72
2021/09/21 00:35:18;;;;;;;10.10;8.23;;;13.90;99.90;;;;;;5019947;28;20458;-72
2021/09/21 00:38:04;;;;;;;10.33;8.93;;;13.80;99.90;;;;;;5018240;28;20416;-71
2021/09/21 00:40:50;;;;;;;10.00;8.80;;;13.70;99.90;;;;;;5016462;28;20455;-72
2021/09/21 00:43:36;;;;;;;9.53;8.63;;;13.80;99.90;;;;;;5022086;28;20455;-71
2021/09/21 00:46:23;;;;;;;11.07;8.63;;;13.80;99.90;;;;;;5025044;28;20476;-71
2021/09/21 00:49:09;;;;;;;12.43;8.70;;;13.80;99.90;;;;;;5019994;28;20504;-72
2021/09/21 00:51:55;;;;;;;12.37;9.33;;;13.80;99.90;;;;;;5016828;28;20588;-71
2021/09/21 00:54:41;;;;;;;13.03;8.67;;;13.80;99.90;;;;;;5023018;28;20399;-72
2021/09/21 00:57:27;;;;;;;12.07;9.47;;;13.90;99.90;;;;;;5013878;28;20523;-72
2021/09/21 01:00:15;;;;;;;11.07;8.20;;;13.90;99.90;;;;;;4993102;28;20453;-72
2021/09/21 01:03:03;;;;;;;14.53;9.67;;;14.00;99.90;;;;;;5012518;28;21092;-72
2021/09/21 01:05:49;;;;;;;16.80;9.37;;;14.00;99.90;;;;;;5017864;28;20504;-71
2021/09/21 01:08:34;;;;;;;10.00;8.77;;;14.00;99.90;;;;;;5010400;28;20448;-71
2021/09/21 01:11:20;;;;;;;11.83;9.27;;;14.00;99.90;;;;;;5012297;28;20539;-72
2021/09/21 01:14:06;;;;;;;9.97;8.43;;;14.10;99.90;;;;;;5023677;28;20925;-72
2021/09/21 01:16:54;;;;;;;10.67;9.57;;;14.10;99.90;;;;;;5017989;28;20520;-72
2021/09/21 01:19:41;;;;;;;10.30;8.47;;;14.00;99.90;;;;;;5022152;28;20841;-72
2021/09/21 01:22:28;;;;;;;10.93;8.90;;;13.90;99.90;;;;;;5009949;28;20521;-72
2021/09/21 01:25:14;;;;;;;10.07;9.07;;;13.90;99.90;;;;;;5018212;28;21176;-72
2021/09/21 01:28:00;;;;;;;11.77;9.57;;;14.00;99.90;;;;;;5024991;28;20480;-72
2021/09/21 01:30:46;;;;;;;10.57;9.47;;;14.00;99.90;;;;;;5024669;28;20467;-72
2021/09/21 01:33:31;;;;;;;9.77;8.70;;;14.00;99.90;;;;;;5022760;28;20408;-72
2021/09/21 01:36:18;;;;;;;12.20;9.17;;;14.10;99.90;;;;;;5012577;28;20468;-72
2021/09/21 01:39:05;;;;;;;10.00;8.67;;;14.10;99.90;;;;;;5011036;28;20580;-72
2021/09/21 01:41:51;;;;;;;11.90;9.70;;;14.10;99.90;;;;;;5018880;28;20527;-72
2021/09/21 01:44:37;;;;;;;14.80;8.73;;;14.20;99.90;;;;;;5013711;28;20803;-72
2021/09/21 01:47:22;;;;;;;11.27;8.70;;;14.20;99.90;;;;;;5018251;28;20464;-72
2021/09/21 01:53:17;;;;;;;11.73;9.37;;;14.20;99.90;;;;;;4989109;28;20645;-72
2021/09/21 01:59:09;;;;;;;12.23;10.40;;;14.10;99.90;;;;;;5022354;28;20441;-72
2021/09/21 02:01:55;;;;;;;12.90;9.50;;;14.00;99.90;;;;;;5015416;28;20433;-72
2021/09/21 02:04:40;;;;;;;10.60;9.33;;;14.00;99.90;;;;;;5026245;28;20457;-72
2021/09/21 02:07:26;;;;;;;11.07;9.50;;;14.00;99.90;;;;;;5012759;28;20425;-72
2021/09/21 02:10:12;;;;;;;11.77;9.70;;;14.00;99.90;;;;;;4997923;28;20500;-72
2021/09/21 02:12:59;;;;;;;12.03;10.80;;;14.00;99.90;;;;;;5024087;28;20440;-72
2021/09/21 02:15:45;;;;;;;11.63;9.70;;;14.10;99.90;;;;;;5024373;28;20970;-72
2021/09/21 02:18:30;;;;;;;12.10;10.77;;;14.20;99.90;;;;;;5019948;28;20467;-72
2021/09/21 02:21:16;;;;;;;13.53;8.83;;;14.20;99.90;;;;;;5021556;28;20469;-72
2021/09/21 02:24:02;;;;;;;11.03;9.87;;;14.20;99.90;;;;;;5021977;28;20459;-72
2021/09/21 02:26:48;;;;;;;10.40;9.37;;;14.30;99.90;;;;;;5019989;28;20461;-72
2021/09/21 02:29:35;;;;;;;9.63;8.63;;;14.20;99.90;;;;;;5025786;28;20611;-72
2021/09/21 02:32:20;;;;;;;10.60;8.73;;;14.20;99.90;;;;;;5017687;28;21091;-72
2021/09/21 02:35:07;;;;;;;11.50;9.30;;;14.20;99.90;;;;;;5021238;28;20457;-72
2021/09/21 02:37:52;;;;;;;9.60;8.63;;;14.30;99.90;;;;;;5022576;28;20510;-72
2021/09/21 02:40:38;;;;;;;10.23;9.13;;;14.30;99.90;;;;;;5020174;28;20476;-72
2021/09/21 02:43:24;;;;;;;11.27;10.10;;;14.40;99.90;;;;;;5021225;28;20435;-72
2021/09/21 02:46:11;;;;;;;11.73;9.73;;;14.40;99.90;;;;;;4997470;28;20462;-72
2021/09/21 02:48:57;;;;;;;9.43;8.50;;;14.40;99.90;;;;;;5022315;28;20825;-72
2021/09/21 02:51:43;;;;;;;10.63;9.13;;;14.40;99.90;;;;;;5022611;28;20507;-72
2021/09/21 02:54:29;;;;;;;11.67;10.47;;;14.30;99.90;;;;;;5010414;28;20462;-72
2021/09/21 02:57:14;;;;;;;10.03;8.93;;;14.40;99.90;;;;;;5015215;28;20400;-72
2021/09/21 03:00:00;;;;;;;10.27;9.10;;;14.30;99.90;;;;;;5024115;28;20454;-72
2021/09/21 03:02:47;;;;;;;11.33;10.17;;;14.30;99.90;;;;;;5026157;28;21252;-72
2021/09/21 03:05:37;;;;;;;12.83;9.30;;;14.30;99.90;;;;;;5023355;28;20804;-72
2021/09/21 03:08:24;;;;;;;10.30;9.20;;;14.30;99.90;;;;;;5009367;28;20473;-72
2021/09/21 03:11:16;;;;;;;13.00;10.90;;;14.30;99.90;;;;;;5013576;28;20547;-72
2021/09/21 03:17:19;;;;;;;11.90;8.77;;;14.20;99.90;;;;;;5029996;28;20468;-72
2021/09/21 03:20:07;;;;;;;10.53;8.37;;;14.30;99.90;;;;;;5021438;28;20485;-72
2021/09/21 03:22:53;;;;;;;11.20;9.87;;;14.20;99.90;;;;;;5022700;28;20435;-72
2021/09/21 03:25:39;;;;;;;10.57;9.47;;;14.30;99.90;;;;;;5017095;28;20417;-72
2021/09/21 03:28:24;;;;;;;12.57;9.57;;;14.30;99.90;;;;;;4998379;28;20531;-72
2021/09/21 03:31:10;;;;;;;11.93;9.07;;;14.30;99.90;;;;;;5021262;28;20500;-72
2021/09/21 03:33:56;;;;;;;13.90;9.40;;;14.30;99.90;;;;;;5029987;22;21016;-74
2021/09/21 03:36:42;;;;;;;14.53;9.77;;;14.30;99.90;;;;;;5031815;28;20452;-72
2021/09/21 03:39:28;;;;;;;9.40;8.50;;;14.20;99.90;;;;;;5030845;28;21027;-72
2021/09/21 03:42:14;;;;;;;12.87;9.50;;;14.30;99.90;;;;;;5032089;28;20469;-73
2021/09/21 03:45:00;;;;;;;11.33;10.00;;;14.20;99.90;;;;;;5032489;28;21055;-73
2021/09/21 03:47:45;;;;;;;14.63;9.63;;;14.20;99.90;;;;;;5031872;28;20947;-73
2021/09/21 03:50:31;;;;;;;10.63;9.20;;;14.20;99.90;;;;;;5032777;28;21006;-73
2021/09/21 03:53:18;;;;;;;12.60;9.47;;;14.20;99.90;;;;;;5031861;28;20821;-73
2021/09/21 03:56:04;;;;;;;10.97;9.10;;;14.20;99.90;;;;;;5030114;28;20461;-73
2021/09/21 03:58:50;;;;;;;10.27;9.20;;;14.20;99.90;;;;;;5030963;28;20448;-72
2021/09/21 04:01:35;;;;;;;10.43;9.33;;;14.10;99.90;;;;;;5032571;28;20451;-73
2021/09/21 04:04:21;;;;;;;9.93;8.83;;;14.10;99.90;;;;;;5031606;28;20488;-72
2021/09/21 04:07:07;;;;;;;10.77;9.43;;;14.10;99.90;;;;;;5030607;28;20431;-73
2021/09/21 04:09:54;;;;;;;15.77;8.63;;;14.10;99.90;;;;;;5032327;28;20499;-73
2021/09/21 04:12:40;;;;;;;11.40;9.80;;;14.10;99.90;;;;;;5030831;28;20844;-73
2021/09/21 04:15:25;;;;;;;11.43;9.10;;;14.10;99.90;;;;;;5018050;28;20520;-73
2021/09/21 04:18:11;;;;;;;11.00;9.83;;;14.10;99.90;;;;;;5024276;28;20501;-73
2021/09/21 04:20:58;;;;;;;8.90;8.00;;;14.10;99.90;;;;;;5031432;28;20434;-73
2021/09/21 04:23:44;;;;;;;9.70;8.70;;;14.10;99.90;;;;;;5031047;28;20550;-72
2021/09/21 04:26:31;;;;;;;9.73;8.73;;;14.10;99.90;;;;;;5030900;28;20863;-73
2021/09/21 04:29:16;;;;;;;11.33;9.50;;;14.10;99.90;;;;;;5025447;28;20468;-73
2021/09/21 04:32:02;;;;;;;14.27;9.87;;;14.10;99.90;;;;;;5030948;28;20438;-73
2021/09/21 04:34:49;;;;;;;11.40;9.17;;;14.10;99.90;;;;;;5031351;28;21009;-73
2021/09/21 04:37:35;;;;;;;9.47;8.57;;;14.10;99.90;;;;;;5032752;28;20431;-73
2021/09/21 04:40:20;;;;;;;12.93;10.20;;;14.10;99.90;;;;;;5029893;28;20415;-72
2021/09/21 04:43:08;;;;;;;12.27;8.70;;;14.10;99.90;;;;;;5031165;28;20495;-73
2021/09/21 04:45:54;;;;;;;15.73;8.90;;;14.10;99.90;;;;;;5030658;28;20451;-73
2021/09/21 04:48:39;;;;;;;13.93;10.43;;;14.10;99.90;;;;;;5030506;28;21095;-73
2021/09/21 04:51:25;;;;;;;10.13;9.10;;;14.00;99.90;;;;;;5025551;28;20428;-72
2021/09/21 04:54:11;;;;;;;11.37;9.10;;;14.10;99.90;;;;;;5019848;28;20472;-73
2021/09/21 04:56:56;;;;;;;15.33;10.03;;;14.10;99.90;;;;;;5030561;28;20437;-73
2021/09/21 04:59:43;;;;;;;13.00;9.07;;;14.10;99.90;;;;;;5031341;28;20474;-73
2021/09/21 05:02:29;;;;;;;10.53;9.37;;;14.10;99.90;;;;;;5029401;28;20419;-72
2021/09/21 05:05:15;;;;;;;10.27;8.57;;;14.00;99.90;;;;;;5027449;28;21047;-73
2021/09/21 05:08:01;;;;;;;10.50;8.47;;;14.00;99.90;;;;;;5030388;28;20419;-73
2021/09/21 05:10:47;;;;;;;9.80;8.80;;;14.00;99.90;;;;;;5028878;28;20494;-73
2021/09/21 05:13:32;;;;;;;13.10;8.60;;;14.10;99.90;;;;;;5029369;28;20902;-72
2021/09/21 05:16:19;;;;;;;9.80;8.60;;;14.10;99.90;;;;;;5029906;28;21029;-72
2021/09/21 05:19:07;;;;;;;9.60;8.60;;;14.00;99.90;;;;;;5030360;28;21028;-73
2021/09/21 05:21:52;;;;;;;9.53;8.53;;;14.00;99.90;;;;;;5029445;28;20456;-73
2021/09/21 05:24:38;;;;;;;9.53;8.60;;;14.00;99.90;;;;;;5030706;28;20447;-73
2021/09/21 05:27:24;;;;;;;10.83;8.93;;;13.90;99.90;;;;;;5030843;28;20447;-73
2021/09/21 05:30:11;;;;;;;13.60;9.37;;;13.90;99.90;;;;;;5028323;28;20631;-72
2021/09/21 05:32:58;;;;;;;10.63;9.20;;;13.90;99.90;;;;;;5029683;28;20571;-73
2021/09/21 05:35:44;;;;;;;13.70;9.27;;;13.90;99.90;;;;;;5029758;28;20556;-73
2021/09/21 05:38:30;;;;;;;12.93;8.60;;;14.00;99.90;;;;;;5025600;28;21124;-73
2021/09/21 05:41:15;;;;;;;13.50;8.57;;;14.00;99.90;;;;;;5029938;28;20476;-73
2021/09/21 05:44:01;;;;;;;10.00;8.90;;;14.10;99.90;;;;;;5030850;28;20529;-73
2021/09/21 05:46:47;;;;;;;10.10;8.20;;;14.00;99.90;;;;;;5029787;28;20456;-73
2021/09/21 05:49:34;;;;;;;11.30;8.40;;;13.90;99.90;;;;;;5029183;28;20497;-73
2021/09/21 05:52:20;;;;;;;8.43;7.20;;;14.00;99.90;;;;;;5030775;28;20417;-73
2021/09/21 05:55:07;;;;;;;10.47;8.40;;;14.00;99.90;;;;;;5028788;28;20822;-72
2021/09/21 05:57:53;;;;;;;10.30;8.10;;;14.00;99.90;;;;;;5029663;28;20419;-72
2021/09/21 06:00:39;;;;;;;9.33;7.23;;;14.00;99.90;;;;;;5025719;28;20433;-72
2021/09/21 06:03:25;;;;;;;8.87;7.97;;;14.00;99.90;;;;;;5026238;28;20450;-73
2021/09/21 06:06:12;;;;;;;9.20;8.30;;;14.00;99.90;;;;;;5018158;28;20834;-72
2021/09/21 06:08:58;;;;;;;14.60;7.87;;;14.10;99.90;;;;;;5029289;28;20505;-72
2021/09/21 06:11:43;;;;;;;12.43;8.40;;;14.10;99.90;;;;;;5029924;28;20480;-73
2021/09/21 06:14:29;;;;;;;9.37;8.40;;;14.00;99.90;;;;;;5023798;28;20468;-72
2021/09/21 06:17:15;;;;;;;9.60;7.90;;;14.00;99.90;;;;;;5020040;28;20423;-73
2021/09/21 06:20:00;;;;;;;9.73;8.20;;;14.00;99.90;;;;;;5030499;28;20880;-73
2021/09/21 06:22:49;;;;;;;10.33;7.40;;;14.00;99.90;;;;;;5029811;28;20486;-73
2021/09/21 06:25:35;;;;;;;8.77;7.73;;;14.00;99.90;;;;;;5030276;28;20937;-73
2021/09/21 06:28:20;;;;;;;7.83;7.03;;;14.10;99.90;;;;;;5028855;28;20556;-73
2021/09/21 06:31:06;;;;;;;12.93;7.67;;;14.10;99.90;;;;;;5029567;28;20460;-72
2021/09/21 06:33:52;;;;;;;8.10;7.30;;;14.00;99.90;;;;;;5029366;28;20475;-73
2021/09/21 06:36:37;;;;;;;10.23;8.10;;;14.10;99.90;;;;;;5030274;28;20457;-73
2021/09/21 06:39:25;;;;;;;8.20;7.27;;;14.10;99.90;;;;;;5028916;28;20444;-73
2021/09/21 06:42:10;;;;;;;8.80;7.57;;;14.10;99.90;;;;;;5032672;28;20503;-72
2021/09/21 06:44:56;;;;;;;9.87;8.07;;;14.20;99.90;;;;;;5033596;28;20437;-72
2021/09/21 06:47:43;;;;;;;9.93;8.10;;;14.20;99.90;;;;;;5033053;28;20456;-73
2021/09/21 06:50:29;;;;;;;9.47;8.37;;;14.20;99.90;;;;;;5028125;28;20476;-73
2021/09/21 06:53:14;;;;;;;9.67;6.80;;;14.40;99.90;;;;;;5032078;28;20478;-72
2021/09/21 06:56:02;;;;;;;10.43;7.30;;;14.40;99.90;;;;;;5032668;28;20435;-73
2021/09/21 06:58:47;;;;;;;8.00;7.20;;;14.50;99.90;;;;;;5033883;28;20540;-73
2021/09/21 07:01:33;;;;;;;8.20;6.50;;;14.50;99.90;;;;;;5031749;28;20433;-73
2021/09/21 07:04:19;;;;;;;7.80;6.83;;;14.50;99.90;;;;;;5026592;28;20965;-73
2021/09/21 07:07:05;;;;;;;8.17;7.03;;;14.60;99.90;;;;;;5032434;28;20592;-73
2021/09/21 07:09:51;;;;;;;8.27;6.50;;;14.60;99.90;;;;;;5032673;28;20488;-73
2021/09/21 07:12:38;;;;;;;8.33;7.50;;;14.60;99.90;;;;;;5032284;28;20431;-73
2021/09/21 07:15:23;;;;;;;11.33;8.27;;;14.70;98.80;;;;;;5031179;28;20456;-73
2021/09/21 07:18:09;;;;;;;8.37;7.47;;;14.70;99.40;;;;;;5032500;28;20433;-73
2021/09/21 07:20:55;;;;;;;10.00;7.50;;;14.60;98.70;;;;;;5030588;28;20418;-73
2021/09/21 07:23:40;;;;;;;16.33;7.43;;;14.70;99.00;;;;;;5032338;28;20452;-73
2021/09/21 07:26:26;;;;;;;10.73;8.00;;;14.80;98.90;;;;;;5025261;28;20908;-72
2021/09/21 07:29:13;;;;;;;8.77;7.47;;;14.90;99.20;;;;;;5032833;28;20866;-72
2021/09/21 07:31:59;;;;;;;8.50;7.63;;;15.00;97.30;;;;;;5033242;28;20463;-73
2021/09/21 07:34:45;;;;;;;11.80;8.63;;;15.20;92.30;;;;;;5028082;28;20450;-73
2021/09/21 07:37:30;;;;;;;7.90;7.10;;;15.20;92.70;;;;;;5032947;28;20425;-73
2021/09/21 07:40:16;;;;;;;10.20;8.13;;;15.30;93.40;;;;;;5016645;28;20939;-73
2021/09/21 07:43:02;;;;;;;8.57;7.67;;;15.40;93.80;;;;;;5031775;28;20456;-73
2021/09/21 07:45:49;;;;;;;8.40;6.50;;;15.50;90.30;;;;;;5022443;28;20827;-73
2021/09/21 07:48:35;;;;;;;8.47;7.57;;;15.60;89.30;;;;;;5028047;28;20478;-73
2021/09/21 07:51:21;;;;;;;8.10;7.10;;;15.70;82.60;;;;;;5013131;28;20515;-73
2021/09/21 07:54:07;;;;;;;12.83;6.70;;;15.80;81.50;;;;;;5030175;28;20469;-73
2021/09/21 07:56:53;;;;;;;9.00;6.60;;;15.80;64.50;;;;;;5029180;28;20428;-72
2021/09/21 07:59:40;;;;;;;8.87;7.60;;;15.90;66.00;;;;;;5032499;28;20446;-71
2021/09/21 08:02:27;;;;;;;10.53;6.43;;;16.00;67.60;;;;;;5029709;28;20488;-71
2021/09/21 08:05:13;;;;;;;8.27;6.43;;;15.90;63.50;;;;;;5030583;28;20400;-71
2021/09/21 08:07:59;;;;;;;9.47;6.80;;;16.00;64.50;;;;;;5028256;28;20416;-71
2021/09/21 08:10:45;;;;;;;7.33;6.57;;;16.10;65.50;;;;;;5027796;28;20846;-71
2021/09/21 08:13:31;;;;;;;9.43;6.43;;;16.30;61.90;;;;;;5029249;28;20977;-72
2021/09/21 08:16:17;;;;;;;9.57;7.53;;;16.30;61.90;;;;;;5031547;28;20425;-72
2021/09/21 08:19:04;;;;;;;14.00;6.93;;;16.20;63.90;;;;;;5031512;28;20916;-72
2021/09/21 08:21:49;;;;;;;9.87;6.53;;;16.20;66.70;;;;;;5024092;28;20503;-72
2021/09/21 08:24:35;;;;;;;8.73;7.13;;;16.20;65.10;;;;;;5026583;28;20455;-72
2021/09/21 08:27:21;;;;;;;7.93;7.10;;;16.10;66.40;;;;;;5031873;28;20425;-73
2021/09/21 08:30:07;;;;;;;6.87;6.17;;;16.00;66.60;;;;;;5031708;28;20447;-72
2021/09/21 08:32:53;;;;;;;16.53;7.27;;;15.80;68.50;;;;;;5030759;28;20925;-72
2021/09/21 08:35:40;;;;;;;21.67;6.77;;;15.70;68.40;;;;;;5031471;28;20399;-72
2021/09/21 08:38:25;;;;;;;8.50;6.63;;;15.60;63.70;;;;;;5023501;28;21029;-72
2021/09/21 08:41:12;;;;;;;12.27;6.83;;;15.60;61.80;;;;;;5018811;28;20865;-72
2021/09/21 08:43:57;;;;;;;8.30;6.53;;;15.70;62.10;;;;;;5030734;28;20529;-72
2021/09/21 08:46:44;;;;;;;8.50;6.73;;;15.90;62.80;;;;;;5023984;28;20448;-72
2021/09/21 08:49:30;;;;;;;8.20;6.77;;;16.10;62.10;;;;;;5026116;28;20479;-72
2021/09/21 08:52:17;;;;;;;7.43;6.73;;;16.30;61.40;;;;;;5025514;28;20556;-72
2021/09/21 08:55:03;;;;;;;9.07;6.33;;;16.40;62.00;;;;;;5024661;28;20454;-72
2021/09/21 08:57:50;;;;;;;9.67;6.30;;;16.50;62.10;;;;;;5024861;28;20962;-72
2021/09/21 09:00:35;;;;;;;10.17;6.60;;;16.70;58.90;;;;;;5029781;28;20452;-72
2021/09/21 09:03:23;;;;;;;7.73;5.60;;;16.80;56.30;;;;;;5025690;28;20480;-75
2021/09/21 09:06:09;;;;;;;8.27;6.00;;;16.80;56.60;;;;;;5017937;28;20456;-72
2021/09/21 09:08:57;;;;;;;6.30;5.67;;;16.70;54.60;;;;;;5028043;28;20468;-72
2021/09/21 09:11:43;;;;;;;9.43;6.17;;;16.60;54.00;;;;;;5028402;28;20483;-72
2021/09/21 09:14:31;;;;;;;7.27;5.97;;;16.50;56.00;;;;;;5029250;28;20484;-72
2021/09/21 09:17:17;;;;;;;8.13;5.60;;;16.50;55.20;;;;;;5022077;28;20542;-72
2021/09/21 09:20:02;;;;;;;6.40;5.67;;;16.50;56.20;;;;;;5029857;28;20433;-72
2021/09/21 09:22:57;;;;;;;10.27;6.30;;;16.60;54.50;;;;;;5025407;28;20506;-72
2021/09/21 09:25:45;;;;;;;7.10;6.40;;;16.60;54.50;;;;;;5024070;28;20432;-72
2021/09/21 09:28:31;;;;;;;9.27;6.30;;;16.50;53.40;;;;;;5029173;28;20790;-72
2021/09/21 09:31:25;;;;;;;7.13;5.80;;;16.40;53.20;;;;;;5024950;28;21032;-72
2021/09/21 09:34:13;;;;;;;7.97;5.70;;;16.30;53.10;;;;;;5025963;22;20534;-73
2021/09/21 09:37:02;;;;;;;6.30;5.70;;;16.30;53.00;;;;;;4986536;28;20429;-73
2021/09/21 09:39:48;;;;;;;6.80;5.80;;;16.30;53.70;;;;;;4986184;28;20430;-73
2021/09/21 09:42:35;;;;;;;9.33;5.87;;;16.40;54.10;;;;;;4989355;28;20907;-73
2021/09/21 09:45:31;;;;;;;6.30;5.43;;;16.60;51.10;;;;;;4998957;28;20445;-73
2021/09/21 09:48:20;;;;;;;6.57;5.10;;;16.60;53.30;;;;;;4986488;28;20433;-73
2021/09/21 09:51:06;;;;;;;7.10;5.90;;;16.80;51.90;;;;;;4999780;28;20451;-73
2021/09/21 09:53:51;;;;;;;7.10;5.60;;;17.00;50.10;;;;;;4998492;28;20446;-73
2021/09/21 09:56:38;;;;;;;6.13;5.13;;;17.10;48.60;;;;;;5003501;28;20423;-73
2021/09/21 09:59:28;;;;;;;5.13;4.60;;;17.10;49.00;;;;;;4987562;28;20450;-73
2021/09/21 10:02:14;;;;;;;5.87;4.63;;;17.20;50.30;;;;;;4985625;28;20433;-73
2021/09/21 10:05:01;;;;;;;6.43;5.83;;;17.40;52.90;;;;;;4987567;28;20494;-73
2021/09/21 10:07:47;;;;;;;6.60;5.57;;;17.70;51.90;;;;;;4989744;28;20429;-73
2021/09/21 10:10:34;;;;;;;6.80;5.37;;;17.80;51.60;;;;;;4996775;28;20960;-73
2021/09/21 10:13:20;;;;;;;6.33;5.33;;;17.70;50.10;;;;;;4996916;28;20517;-73
2021/09/21 10:16:07;;;;;;;8.07;6.07;;;17.50;49.20;;;;;;4992926;28;20571;-73
2021/09/21 10:18:57;;;;;;;7.30;6.10;;;17.40;50.20;;;;;;4991375;28;20442;-73
2021/09/21 10:21:47;;;;;;;5.83;5.23;;;17.40;50.50;;;;;;5000465;28;20412;-73
2021/09/21 10:24:37;;;;;;;10.47;5.10;;;17.50;51.20;;;;;;4994679;28;20493;-71
2021/09/21 10:27:24;;;;;;;8.93;5.33;;;17.80;51.00;;;;;;4995995;28;20584;-71
2021/09/21 10:30:12;;;;;;;6.30;5.50;;;18.10;48.20;;;;;;4997925;28;20628;-71
2021/09/21 10:33:00;;;;;;;9.03;4.77;;;18.40;48.20;;;;;;5000708;28;20429;-71
2021/09/21 10:35:48;;;;;;;6.10;4.60;;;18.70;46.90;;;;;;4990711;28;20490;-72
2021/09/21 10:38:34;;;;;;;5.70;4.57;;;19.00;44.70;;;;;;4991093;28;20445;-71
2021/09/21 10:41:20;;;;;;;5.30;4.80;;;19.20;44.30;;;;;;4994013;28;20416;-71
2021/09/21 10:44:08;;;;;;;5.10;4.60;;;19.40;42.00;;;;;;5002535;28;20955;-71
2021/09/21 10:46:56;;;;;;;6.23;5.33;;;19.50;42.60;;;;;;4994755;28;20475;-71
2021/09/21 10:49:44;;;;;;;6.77;5.20;;;19.60;42.50;;;;;;4993404;28;21048;-73
2021/09/21 10:52:29;;;;;;;7.43;4.77;;;19.80;42.80;;;;;;4988071;28;20456;-72
2021/09/21 10:55:18;;;;;;;5.33;4.40;;;19.80;42.20;;;;;;4988483;28;20537;-73
2021/09/21 10:58:04;;;;;;;6.40;5.10;;;19.80;42.20;;;;;;4987891;28;20979;-73
2021/09/21 11:00:50;;;;;;;6.73;5.20;;;19.90;41.00;;;;;;5013877;28;20796;-73
2021/09/21 11:03:37;;;;;;;5.53;4.97;;;20.00;40.30;;;;;;4994063;28;20395;-73
2021/09/21 11:06:24;;;;;;;5.70;4.80;;;19.90;41.00;;;;;;4999057;28;20410;-73
2021/09/21 11:09:09;;;;;;;6.50;4.43;;;20.00;42.60;;;;;;5005440;28;20796;-73
2021/09/21 11:11:57;;;;;;;6.43;3.70;;;20.10;42.10;;;;;;5010121;28;20450;-74
2021/09/21 11:14:44;;;;;;;6.10;4.33;;;20.20;40.70;;;;;;4993651;28;20430;-73
2021/09/21 11:17:30;;;;;;;5.93;4.40;;;20.20;39.80;;;;;;4994285;28;20424;-74
2021/09/21 11:20:15;;;;;;;7.87;5.23;;;20.20;39.10;;;;;;4992198;28;20411;-73
2021/09/21 11:23:04;;;;;;;5.27;4.13;;;20.10;43.00;;;;;;4994242;28;21087;-73
2021/09/21 11:25:51;;;;;;;6.87;4.97;;;20.10;40.70;;;;;;4998191;28;20453;-73
2021/09/21 11:28:38;;;;;;;5.23;4.40;;;20.20;40.20;;;;;;4999043;28;20563;-73
2021/09/21 11:31:25;;;;;;;4.77;3.90;;;20.20;41.10;;;;;;4997173;28;20474;-73
2021/09/21 11:34:11;;;;;;;5.60;4.37;;;20.30;39.90;;;;;;5012022;28;20490;-73
2021/09/21 11:37:03;;;;;;;5.13;4.50;;;20.40;40.70;;;;;;4996898;28;21013;-73
2021/09/21 11:39:50;;;;;;;5.10;4.30;;;20.60;41.70;;;;;;4998149;28;20924;-73
2021/09/21 11:42:37;;;;;;;5.30;4.37;;;20.60;37.10;;;;;;4991674;28;20501;-73
2021/09/21 11:45:23;;;;;;;6.63;4.43;;;20.60;38.50;;;;;;5000279;28;20857;-73
2021/09/21 11:48:10;;;;;;;4.20;3.67;;;20.70;38.30;;;;;;5006618;28;20425;-73
2021/09/21 11:50:56;;;;;;;5.17;4.30;;;20.70;37.30;;;;;;5004772;28;20520;-73
2021/09/21 11:53:42;;;;;;;5.30;3.83;;;20.70;37.40;;;;;;5006919;28;20973;-73
2021/09/21 11:56:29;;;;;;;5.90;4.50;;;20.70;40.30;;;;;;4990398;28;20421;-73
2021/09/21 11:59:16;;;;;;;4.77;4.27;;;20.70;38.10;;;;;;4994133;28;20818;-73
2021/09/21 12:02:02;;;;;;;5.40;4.53;;;20.60;38.00;;;;;;4999472;28;20420;-73
2021/09/21 12:04:48;;;;;;;6.40;4.23;;;20.30;38.60;;;;;;5008388;28;20426;-73
2021/09/21 12:07:34;;;;;;;4.77;3.83;;;20.30;39.90;;;;;;4992423;28;20429;-73
2021/09/21 12:10:21;;;;;;;5.77;4.43;;;20.30;38.80;;;;;;4992307;28;20447;-73
2021/09/21 12:13:12;;;;;;;6.43;4.47;;;20.30;39.90;;;;;;5003024;28;20443;-73
2021/09/21 12:16:00;;;;;;;7.70;4.10;;;20.30;38.30;;;;;;4999817;28;20937;-73
2021/09/21 12:18:46;;;;;;;5.57;4.20;;;20.30;38.10;;;;;;5000932;28;20418;-73
2021/09/21 12:21:35;;;;;;;7.37;4.80;;;20.40;40.00;;;;;;5003400;28;20456;-73
2021/09/21 12:24:30;;;;;;;6.83;4.17;;;20.50;38.70;;;;;;4972975;28;20528;-73
2021/09/21 12:27:16;;;;;;;4.93;4.00;;;20.50;37.60;;;;;;4999002;28;20902;-73
2021/09/21 12:30:05;;;;;;;4.60;3.90;;;20.50;37.20;;;;;;5006241;28;20426;-73
2021/09/21 12:33:01;;;;;;;8.10;4.50;;;20.70;40.30;;;;;;5000123;28;20429;-73
2021/09/21 12:35:49;;;;;;;5.10;4.20;;;20.80;38.00;;;;;;4996092;28;20577;-73
2021/09/21 12:38:34;;;;;;;6.23;3.70;;;20.80;37.10;;;;;;4991691;28;20601;-73
2021/09/21 12:41:20;;;;;;;7.00;4.27;;;21.00;39.90;;;;;;4993841;28;20471;-73
2021/09/21 12:44:07;;;;;;;6.00;3.97;;;21.00;38.80;;;;;;5003476;28;21012;-73
2021/09/21 12:46:56;;;;;;;6.93;4.43;;;21.10;36.50;;;;;;5000569;28;20439;-73
2021/09/21 12:49:43;;;;;;;9.23;3.77;;;21.40;37.10;;;;;;5000134;28;20504;-73
2021/09/21 12:52:31;;;;;;;4.37;3.73;;;21.70;37.10;;;;;;4995030;28;20489;-73
2021/09/21 12:55:31;;;;;;;4.20;3.43;;;21.70;34.40;;;;;;4993631;28;21146;-73
2021/09/21 12:58:16;;;;;;;5.00;4.10;;;21.90;37.80;;;;;;4977931;28;20515;-73
2021/09/21 13:01:03;;;;;;;4.30;3.60;;;22.10;36.00;;;;;;4999574;28;20800;-73
2021/09/21 13:03:50;;;;;;;4.40;4.00;;;22.20;33.60;;;;;;5000197;28;20434;-74
2021/09/21 13:06:35;;;;;;;4.60;3.50;;;22.20;33.30;;;;;;5009335;28;20402;-73
2021/09/21 13:09:21;;;;;;;6.57;4.20;;;22.20;34.40;;;;;;4998330;28;20422;-73
2021/09/21 13:12:07;;;;;;;5.20;3.90;;;22.30;34.60;;;;;;5008350;28;20578;-74
2021/09/21 13:14:52;;;;;;;4.27;3.87;;;22.40;34.10;;;;;;5008569;28;20467;-73
2021/09/21 13:17:38;;;;;;;4.93;3.70;;;22.40;35.70;;;;;;4974724;28;20560;-73
2021/09/21 13:20:26;;;;;;;9.30;4.27;;;22.40;33.00;;;;;;5000438;28;20403;-73
2021/09/21 13:23:12;;;;;;;4.40;3.90;;;22.40;32.30;;;;;;4988484;28;20495;-74
2021/09/21 13:25:58;;;;;;;5.27;4.17;;;22.50;34.20;;;;;;4995678;28;21005;-74
2021/09/21 13:28:43;;;;;;;6.70;4.00;;;22.40;32.20;;;;;;4991285;28;20446;-74
2021/09/21 13:31:29;;;;;;;10.93;5.07;;;22.60;31.80;;;;;;4993790;28;20845;-74
2021/09/21 13:34:15;;;;;;;4.30;3.80;;;22.40;30.80;;;;;;4992066;28;20479;-74
2021/09/21 13:37:02;;;;;;;4.70;3.00;;;22.50;32.00;;;;;;4995920;28;20440;-74
2021/09/21 13:39:48;;;;;;;4.30;3.77;;;22.70;32.90;;;;;;4989466;28;21044;-74
2021/09/21 13:42:33;;;;;;;6.00;4.10;;;23.00;34.10;;;;;;4993666;28;20826;-74
2021/09/21 13:45:22;;;;;;;4.07;3.67;;;23.20;33.50;;;;;;4987510;28;20452;-74
2021/09/21 13:48:08;;;;;;;5.17;3.80;;;23.40;32.50;;;;;;4995518;28;20454;-71
2021/09/21 13:50:53;;;;;;;5.53;4.40;;;23.50;31.60;;;;;;4993268;28;20981;-71
2021/09/21 13:53:40;;;;;;;4.20;3.80;;;23.50;30.70;;;;;;4991173;28;20445;-72
2021/09/21 13:56:26;;;;;;;4.77;4.17;;;23.50;31.80;;;;;;4999424;28;20428;-71
2021/09/21 13:59:13;;;;;;;5.93;3.80;;;23.40;31.40;;;;;;4995244;28;20415;-71
2021/09/21 14:02:04;;;;;;;4.17;3.77;;;23.30;31.60;;;;;;4988305;28;20458;-71
2021/09/21 14:04:49;;;;;;;6.70;4.33;;;23.20;32.10;;;;;;4992178;28;20457;-72
2021/09/21 14:07:35;;;;;;;5.50;3.73;;;22.90;33.20;;;;;;5001937;28;20436;-71
2021/09/21 14:10:22;;;;;;;8.97;4.27;;;22.40;32.80;;;;;;4998514;28;20452;-71
2021/09/21 14:13:08;;;;;;;7.53;4.20;;;22.40;32.90;;;;;;5002881;28;20499;-74
2021/09/21 14:15:53;;;;;;;6.30;4.73;;;22.30;33.10;;;;;;4997744;28;20423;-74
2021/09/21 14:18:39;;;;;;;5.43;4.30;;;22.10;33.60;;;;;;5004057;28;20571;-74
2021/09/21 14:21:25;;;;;;;4.70;4.10;;;22.00;33.60;;;;;;5007497;28;20424;-74
2021/09/21 14:24:10;;;;;;;6.13;3.60;;;22.10;34.10;;;;;;4992705;28;20781;-74
2021/09/21 14:26:59;;;;;;;4.27;3.77;;;22.10;33.70;;;;;;5002362;28;20954;-74
2021/09/21 14:29:45;;;;;;;4.40;3.77;;;22.20;35.30;;;;;;5000822;28;20419;-74
2021/09/21 14:32:31;;;;;;;4.70;4.20;;;22.20;34.20;;;;;;5014149;28;20529;-74